sensor_id;sensor_type;location;lat;lon;timestamp;P1;durP1;ratioP1;P2;durP2;ratioP2
59786;SDS011;45672;51.612;5.536;2022-07-29T00:01:49;4.03;;;1.80;;
59786;SDS011;45672;51.612;5.536;2022-07-29T00:04:14;4.43;;;1.60;;
59786;SDS011;45672;51.612;5.536;2022-07-29T00:06:40;4.13;;;1.75;;
59786;SDS011;45672;51.612;5.536;2022-07-29T00:09:05;3.65;;;1.70;;
59786;SDS011;45672;51.612;5.536;2022-07-29T00:11:31;4.53;;;1.83;;
59786;SDS011;45672;51.612;5.536;2022-07-29T00:13:56;3.33;;;1.70;;
59786;SDS011;45672;51.612;5.536;2022-07-29T00:16:22;4.60;;;1.90;;
59786;SDS011;45672;51.612;5.536;2022-07-29T00:18:48;4.20;;;1.90;;
59786;SDS011;45672;51.612;5.536;2022-07-29T00:21:13;9.55;;;1.90;;
59786;SDS011;45672;51.612;5.536;2022-07-29T00:23:38;6.20;;;1.90;;
59786;SDS011;45672;51.612;5.536;2022-07-29T00:26:04;7.68;;;1.80;;
59786;SDS011;45672;51.612;5.536;2022-07-29T00:28:29;3.65;;;1.70;;
59786;SDS011;45672;51.612;5.536;2022-07-29T00:30:54;3.60;;;1.50;;
59786;SDS011;45672;51.612;5.536;2022-07-29T00:33:19;4.60;;;1.70;;
59786;SDS011;45672;51.612;5.536;2022-07-29T00:35:45;2.50;;;1.80;;
59786;SDS011;45672;51.612;5.536;2022-07-29T00:38:15;2.83;;;1.65;;
59786;SDS011;45672;51.612;5.536;2022-07-29T00:40:42;3.85;;;1.67;;
59786;SDS011;45672;51.612;5.536;2022-07-29T00:43:13;2.10;;;1.85;;
59786;SDS011;45672;51.612;5.536;2022-07-29T00:45:38;6.32;;;1.80;;
59786;SDS011;45672;51.612;5.536;2022-07-29T00:48:04;6.20;;;1.90;;
59786;SDS011;45672;51.612;5.536;2022-07-29T00:50:31;3.58;;;1.85;;
59786;SDS011;45672;51.612;5.536;2022-07-29T00:52:58;5.85;;;1.77;;
59786;SDS011;45672;51.612;5.536;2022-07-29T00:55:23;3.85;;;1.90;;
59786;SDS011;45672;51.612;5.536;2022-07-29T00:57:49;5.38;;;1.88;;
59786;SDS011;45672;51.612;5.536;2022-07-29T01:00:16;6.25;;;2.05;;
59786;SDS011;45672;51.612;5.536;2022-07-29T01:02:44;10.25;;;1.88;;
59786;SDS011;45672;51.612;5.536;2022-07-29T01:05:13;6.40;;;1.90;;
59786;SDS011;45672;51.612;5.536;2022-07-29T01:07:39;8.02;;;2.17;;
59786;SDS011;45672;51.612;5.536;2022-07-29T01:10:05;2.33;;;1.60;;
59786;SDS011;45672;51.612;5.536;2022-07-29T01:12:33;5.75;;;1.70;;
59786;SDS011;45672;51.612;5.536;2022-07-29T01:15:00;3.75;;;1.88;;
59786;SDS011;45672;51.612;5.536;2022-07-29T01:20:03;9.70;;;1.88;;
59786;SDS011;45672;51.612;5.536;2022-07-29T01:27:32;3.90;;;1.75;;
59786;SDS011;45672;51.612;5.536;2022-07-29T01:30:21;3.25;;;1.80;;
59786;SDS011;45672;51.612;5.536;2022-07-29T01:32:50;4.57;;;1.83;;
59786;SDS011;45672;51.612;5.536;2022-07-29T01:35:23;9.90;;;2.00;;
59786;SDS011;45672;51.612;5.536;2022-07-29T01:37:52;7.25;;;2.00;;
59786;SDS011;45672;51.612;5.536;2022-07-29T01:40:43;5.93;;;1.95;;
59786;SDS011;45672;51.612;5.536;2022-07-29T01:43:16;4.97;;;1.95;;
59786;SDS011;45672;51.612;5.536;2022-07-29T01:48:21;4.10;;;2.10;;
59786;SDS011;45672;51.612;5.536;2022-07-29T01:51:02;4.53;;;2.00;;
59786;SDS011;45672;51.612;5.536;2022-07-29T01:56:03;3.40;;;1.98;;
59786;SDS011;45672;51.612;5.536;2022-07-29T01:58:31;4.35;;;2.13;;
59786;SDS011;45672;51.612;5.536;2022-07-29T02:00:58;3.00;;;1.98;;
59786;SDS011;45672;51.612;5.536;2022-07-29T02:03:25;3.33;;;1.92;;
59786;SDS011;45672;51.612;5.536;2022-07-29T02:05:52;5.45;;;2.30;;
59786;SDS011;45672;51.612;5.536;2022-07-29T02:08:19;5.63;;;2.22;;
59786;SDS011;45672;51.612;5.536;2022-07-29T02:10:47;5.88;;;2.80;;
59786;SDS011;45672;51.612;5.536;2022-07-29T02:13:14;5.00;;;2.60;;
59786;SDS011;45672;51.612;5.536;2022-07-29T02:15:41;3.95;;;2.70;;
59786;SDS011;45672;51.612;5.536;2022-07-29T02:18:09;4.95;;;2.50;;
59786;SDS011;45672;51.612;5.536;2022-07-29T02:20:40;6.72;;;2.40;;
59786;SDS011;45672;51.612;5.536;2022-07-29T02:23:13;5.75;;;2.53;;
59786;SDS011;45672;51.612;5.536;2022-07-29T02:25:41;4.90;;;2.70;;
59786;SDS011;45672;51.612;5.536;2022-07-29T02:28:07;3.45;;;2.45;;
59786;SDS011;45672;51.612;5.536;2022-07-29T02:30:33;5.70;;;2.58;;
59786;SDS011;45672;51.612;5.536;2022-07-29T02:33:03;4.55;;;2.53;;
59786;SDS011;45672;51.612;5.536;2022-07-29T02:35:30;4.88;;;2.65;;
59786;SDS011;45672;51.612;5.536;2022-07-29T02:37:56;6.18;;;2.38;;
59786;SDS011;45672;51.612;5.536;2022-07-29T02:40:40;4.18;;;2.40;;
59786;SDS011;45672;51.612;5.536;2022-07-29T02:43:07;4.93;;;2.50;;
59786;SDS011;45672;51.612;5.536;2022-07-29T02:45:34;6.90;;;2.58;;
59786;SDS011;45672;51.612;5.536;2022-07-29T02:48:00;7.05;;;2.65;;
59786;SDS011;45672;51.612;5.536;2022-07-29T02:50:34;4.53;;;2.58;;
59786;SDS011;45672;51.612;5.536;2022-07-29T02:55:44;2.80;;;2.40;;
59786;SDS011;45672;51.612;5.536;2022-07-29T02:58:21;6.43;;;2.40;;
59786;SDS011;45672;51.612;5.536;2022-07-29T03:00:53;3.97;;;2.55;;
59786;SDS011;45672;51.612;5.536;2022-07-29T03:03:21;4.68;;;2.45;;
59786;SDS011;45672;51.612;5.536;2022-07-29T03:05:52;5.55;;;2.72;;
59786;SDS011;45672;51.612;5.536;2022-07-29T03:08:20;5.20;;;2.72;;
59786;SDS011;45672;51.612;5.536;2022-07-29T03:10:46;6.72;;;2.60;;
59786;SDS011;45672;51.612;5.536;2022-07-29T03:13:13;8.32;;;2.22;;
59786;SDS011;45672;51.612;5.536;2022-07-29T03:15:39;5.15;;;2.60;;
59786;SDS011;45672;51.612;5.536;2022-07-29T03:18:07;4.32;;;2.22;;
59786;SDS011;45672;51.612;5.536;2022-07-29T03:20:33;6.20;;;2.53;;
59786;SDS011;45672;51.612;5.536;2022-07-29T03:22:58;3.58;;;2.10;;
59786;SDS011;45672;51.612;5.536;2022-07-29T03:25:23;3.50;;;2.60;;
59786;SDS011;45672;51.612;5.536;2022-07-29T03:27:49;5.68;;;2.63;;
59786;SDS011;45672;51.612;5.536;2022-07-29T03:30:15;4.63;;;2.58;;
59786;SDS011;45672;51.612;5.536;2022-07-29T03:32:41;5.70;;;2.45;;
59786;SDS011;45672;51.612;5.536;2022-07-29T03:35:06;5.95;;;2.45;;
59786;SDS011;45672;51.612;5.536;2022-07-29T03:37:32;8.30;;;2.40;;
59786;SDS011;45672;51.612;5.536;2022-07-29T03:39:58;4.30;;;2.67;;
59786;SDS011;45672;51.612;5.536;2022-07-29T03:42:28;3.55;;;2.78;;
59786;SDS011;45672;51.612;5.536;2022-07-29T03:44:58;3.00;;;2.67;;
59786;SDS011;45672;51.612;5.536;2022-07-29T03:47:27;6.53;;;2.75;;
59786;SDS011;45672;51.612;5.536;2022-07-29T03:49:56;4.22;;;2.60;;
59786;SDS011;45672;51.612;5.536;2022-07-29T03:52:25;5.80;;;2.75;;
59786;SDS011;45672;51.612;5.536;2022-07-29T03:54:50;7.93;;;2.58;;
59786;SDS011;45672;51.612;5.536;2022-07-29T03:57:16;5.95;;;2.58;;
59786;SDS011;45672;51.612;5.536;2022-07-29T03:59:45;4.93;;;2.35;;
59786;SDS011;45672;51.612;5.536;2022-07-29T04:02:11;4.93;;;2.55;;
59786;SDS011;45672;51.612;5.536;2022-07-29T04:04:37;3.28;;;2.50;;
59786;SDS011;45672;51.612;5.536;2022-07-29T04:07:03;3.63;;;2.30;;
59786;SDS011;45672;51.612;5.536;2022-07-29T04:09:28;4.38;;;2.55;;
59786;SDS011;45672;51.612;5.536;2022-07-29T04:11:54;5.72;;;2.67;;
59786;SDS011;45672;51.612;5.536;2022-07-29T04:14:19;3.17;;;2.60;;
59786;SDS011;45672;51.612;5.536;2022-07-29T04:16:45;3.95;;;2.78;;
59786;SDS011;45672;51.612;5.536;2022-07-29T04:19:10;6.40;;;3.00;;
59786;SDS011;45672;51.612;5.536;2022-07-29T04:21:39;4.00;;;2.55;;
59786;SDS011;45672;51.612;5.536;2022-07-29T04:24:05;4.85;;;2.80;;
59786;SDS011;45672;51.612;5.536;2022-07-29T04:26:31;5.75;;;2.97;;
59786;SDS011;45672;51.612;5.536;2022-07-29T04:28:57;6.95;;;3.00;;
59786;SDS011;45672;51.612;5.536;2022-07-29T04:31:22;5.50;;;2.88;;
59786;SDS011;45672;51.612;5.536;2022-07-29T04:33:47;3.13;;;2.85;;
59786;SDS011;45672;51.612;5.536;2022-07-29T04:36:13;5.53;;;3.13;;
59786;SDS011;45672;51.612;5.536;2022-07-29T04:38:38;7.35;;;3.13;;
59786;SDS011;45672;51.612;5.536;2022-07-29T04:41:04;7.32;;;3.83;;
59786;SDS011;45672;51.612;5.536;2022-07-29T04:43:29;10.82;;;3.55;;
59786;SDS011;45672;51.612;5.536;2022-07-29T04:45:55;6.00;;;3.38;;
59786;SDS011;45672;51.612;5.536;2022-07-29T04:48:20;6.05;;;3.40;;
59786;SDS011;45672;51.612;5.536;2022-07-29T04:50:46;9.68;;;3.42;;
59786;SDS011;45672;51.612;5.536;2022-07-29T04:53:11;9.77;;;3.70;;
59786;SDS011;45672;51.612;5.536;2022-07-29T04:55:37;7.47;;;3.53;;
59786;SDS011;45672;51.612;5.536;2022-07-29T04:58:02;6.53;;;3.55;;
59786;SDS011;45672;51.612;5.536;2022-07-29T05:00:27;8.18;;;3.90;;
59786;SDS011;45672;51.612;5.536;2022-07-29T05:02:52;6.70;;;3.78;;
59786;SDS011;45672;51.612;5.536;2022-07-29T05:05:18;6.18;;;3.80;;
59786;SDS011;45672;51.612;5.536;2022-07-29T05:07:43;5.53;;;3.50;;
59786;SDS011;45672;51.612;5.536;2022-07-29T05:10:08;5.55;;;4.00;;
59786;SDS011;45672;51.612;5.536;2022-07-29T05:12:34;5.00;;;3.80;;
59786;SDS011;45672;51.612;5.536;2022-07-29T05:15:00;6.57;;;3.42;;
59786;SDS011;45672;51.612;5.536;2022-07-29T05:17:25;4.78;;;3.85;;
59786;SDS011;45672;51.612;5.536;2022-07-29T05:19:50;5.30;;;3.83;;
59786;SDS011;45672;51.612;5.536;2022-07-29T05:22:17;9.57;;;4.72;;
59786;SDS011;45672;51.612;5.536;2022-07-29T05:24:43;5.68;;;3.90;;
59786;SDS011;45672;51.612;5.536;2022-07-29T05:27:08;6.32;;;4.00;;
59786;SDS011;45672;51.612;5.536;2022-07-29T05:29:34;4.00;;;3.42;;
59786;SDS011;45672;51.612;5.536;2022-07-29T05:32:00;7.93;;;4.15;;
59786;SDS011;45672;51.612;5.536;2022-07-29T05:34:25;5.13;;;4.35;;
59786;SDS011;45672;51.612;5.536;2022-07-29T05:36:50;4.63;;;4.18;;
59786;SDS011;45672;51.612;5.536;2022-07-29T05:39:16;6.03;;;3.95;;
59786;SDS011;45672;51.612;5.536;2022-07-29T05:41:41;7.55;;;4.30;;
59786;SDS011;45672;51.612;5.536;2022-07-29T05:44:06;6.63;;;4.07;;
59786;SDS011;45672;51.612;5.536;2022-07-29T05:46:33;5.65;;;3.92;;
59786;SDS011;45672;51.612;5.536;2022-07-29T05:48:58;4.38;;;4.00;;
59786;SDS011;45672;51.612;5.536;2022-07-29T05:51:23;6.55;;;4.10;;
59786;SDS011;45672;51.612;5.536;2022-07-29T05:53:48;5.45;;;3.78;;
59786;SDS011;45672;51.612;5.536;2022-07-29T05:56:14;8.38;;;4.35;;
59786;SDS011;45672;51.612;5.536;2022-07-29T05:58:39;5.60;;;4.00;;
59786;SDS011;45672;51.612;5.536;2022-07-29T06:01:04;6.80;;;4.35;;
59786;SDS011;45672;51.612;5.536;2022-07-29T06:03:30;6.13;;;4.00;;
59786;SDS011;45672;51.612;5.536;2022-07-29T06:05:55;8.65;;;4.30;;
59786;SDS011;45672;51.612;5.536;2022-07-29T06:08:20;4.65;;;4.13;;
59786;SDS011;45672;51.612;5.536;2022-07-29T06:10:46;4.55;;;4.05;;
59786;SDS011;45672;51.612;5.536;2022-07-29T06:13:12;4.82;;;4.32;;
59786;SDS011;45672;51.612;5.536;2022-07-29T06:15:37;8.88;;;4.53;;
59786;SDS011;45672;51.612;5.536;2022-07-29T06:18:03;4.93;;;4.40;;
59786;SDS011;45672;51.612;5.536;2022-07-29T06:20:28;6.90;;;4.43;;
59786;SDS011;45672;51.612;5.536;2022-07-29T06:22:55;9.90;;;4.63;;
59786;SDS011;45672;51.612;5.536;2022-07-29T06:25:20;6.18;;;4.43;;
59786;SDS011;45672;51.612;5.536;2022-07-29T06:27:46;4.97;;;4.47;;
59786;SDS011;45672;51.612;5.536;2022-07-29T06:30:11;7.07;;;4.50;;
59786;SDS011;45672;51.612;5.536;2022-07-29T06:32:37;8.15;;;4.78;;
59786;SDS011;45672;51.612;5.536;2022-07-29T06:35:02;6.93;;;4.55;;
59786;SDS011;45672;51.612;5.536;2022-07-29T06:37:28;6.43;;;4.57;;
59786;SDS011;45672;51.612;5.536;2022-07-29T06:39:53;10.75;;;4.15;;
59786;SDS011;45672;51.612;5.536;2022-07-29T06:42:42;6.63;;;4.07;;
59786;SDS011;45672;51.612;5.536;2022-07-29T06:45:08;6.88;;;4.13;;
59786;SDS011;45672;51.612;5.536;2022-07-29T06:47:34;6.57;;;4.13;;
59786;SDS011;45672;51.612;5.536;2022-07-29T06:49:59;5.13;;;3.90;;
59786;SDS011;45672;51.612;5.536;2022-07-29T06:52:24;4.70;;;4.30;;
59786;SDS011;45672;51.612;5.536;2022-07-29T06:54:50;6.80;;;4.35;;
59786;SDS011;45672;51.612;5.536;2022-07-29T06:57:15;5.95;;;4.15;;
59786;SDS011;45672;51.612;5.536;2022-07-29T06:59:40;5.70;;;4.00;;
59786;SDS011;45672;51.612;5.536;2022-07-29T07:02:06;8.00;;;4.45;;
59786;SDS011;45672;51.612;5.536;2022-07-29T07:04:32;6.55;;;4.30;;
59786;SDS011;45672;51.612;5.536;2022-07-29T07:06:58;9.02;;;4.70;;
59786;SDS011;45672;51.612;5.536;2022-07-29T07:09:24;6.30;;;4.22;;
59786;SDS011;45672;51.612;5.536;2022-07-29T07:11:49;4.63;;;4.22;;
59786;SDS011;45672;51.612;5.536;2022-07-29T07:14:15;6.13;;;4.05;;
59786;SDS011;45672;51.612;5.536;2022-07-29T07:16:40;9.38;;;4.40;;
59786;SDS011;45672;51.612;5.536;2022-07-29T07:19:05;5.85;;;3.90;;
59786;SDS011;45672;51.612;5.536;2022-07-29T07:21:32;6.13;;;4.10;;
59786;SDS011;45672;51.612;5.536;2022-07-29T07:23:58;8.32;;;4.20;;
59786;SDS011;45672;51.612;5.536;2022-07-29T07:26:23;4.63;;;4.10;;
59786;SDS011;45672;51.612;5.536;2022-07-29T07:28:49;8.80;;;3.90;;
59786;SDS011;45672;51.612;5.536;2022-07-29T07:31:14;8.27;;;4.72;;
59786;SDS011;45672;51.612;5.536;2022-07-29T07:33:39;7.18;;;4.68;;
59786;SDS011;45672;51.612;5.536;2022-07-29T07:36:04;5.25;;;4.80;;
59786;SDS011;45672;51.612;5.536;2022-07-29T07:38:30;7.88;;;5.20;;
59786;SDS011;45672;51.612;5.536;2022-07-29T07:40:55;7.70;;;5.40;;
59786;SDS011;45672;51.612;5.536;2022-07-29T07:43:20;10.95;;;4.65;;
59786;SDS011;45672;51.612;5.536;2022-07-29T07:45:46;7.78;;;5.20;;
59786;SDS011;45672;51.612;5.536;2022-07-29T07:48:12;7.93;;;5.10;;
59786;SDS011;45672;51.612;5.536;2022-07-29T07:50:37;7.22;;;5.10;;
59786;SDS011;45672;51.612;5.536;2022-07-29T07:53:02;9.55;;;4.53;;
59786;SDS011;45672;51.612;5.536;2022-07-29T07:55:28;7.07;;;4.00;;
59786;SDS011;45672;51.612;5.536;2022-07-29T07:57:53;13.82;;;4.40;;
59786;SDS011;45672;51.612;5.536;2022-07-29T08:00:19;4.53;;;4.10;;
59786;SDS011;45672;51.612;5.536;2022-07-29T08:02:45;10.32;;;3.65;;
59786;SDS011;45672;51.612;5.536;2022-07-29T08:05:10;6.68;;;3.65;;
59786;SDS011;45672;51.612;5.536;2022-07-29T08:07:38;5.00;;;3.70;;
59786;SDS011;45672;51.612;5.536;2022-07-29T08:10:04;6.72;;;3.60;;
59786;SDS011;45672;51.612;5.536;2022-07-29T08:12:29;3.72;;;2.97;;
59786;SDS011;45672;51.612;5.536;2022-07-29T08:14:55;4.47;;;3.15;;
59786;SDS011;45672;51.612;5.536;2022-07-29T08:17:20;6.45;;;2.72;;
59786;SDS011;45672;51.612;5.536;2022-07-29T08:19:45;3.50;;;2.80;;
59786;SDS011;45672;51.612;5.536;2022-07-29T08:22:13;5.20;;;2.92;;
59786;SDS011;45672;51.612;5.536;2022-07-29T08:24:38;6.10;;;3.05;;
59786;SDS011;45672;51.612;5.536;2022-07-29T08:29:46;6.22;;;3.00;;
59786;SDS011;45672;51.612;5.536;2022-07-29T08:32:11;7.70;;;3.13;;
59786;SDS011;45672;51.612;5.536;2022-07-29T08:34:36;5.05;;;2.90;;
59786;SDS011;45672;51.612;5.536;2022-07-29T08:37:02;6.68;;;2.70;;
59786;SDS011;45672;51.612;5.536;2022-07-29T08:39:27;5.50;;;2.75;;
59786;SDS011;45672;51.612;5.536;2022-07-29T08:41:52;8.10;;;2.50;;
59786;SDS011;45672;51.612;5.536;2022-07-29T08:44:18;4.82;;;2.33;;
59786;SDS011;45672;51.612;5.536;2022-07-29T08:46:44;4.22;;;2.67;;
59786;SDS011;45672;51.612;5.536;2022-07-29T08:49:09;10.88;;;2.60;;
59786;SDS011;45672;51.612;5.536;2022-07-29T08:51:35;6.40;;;2.50;;
59786;SDS011;45672;51.612;5.536;2022-07-29T08:54:02;5.68;;;2.47;;
59786;SDS011;45672;51.612;5.536;2022-07-29T08:56:28;6.93;;;2.50;;
59786;SDS011;45672;51.612;5.536;2022-07-29T08:58:54;4.65;;;2.67;;
59786;SDS011;45672;51.612;5.536;2022-07-29T09:01:23;6.95;;;2.90;;
59786;SDS011;45672;51.612;5.536;2022-07-29T09:03:50;4.47;;;2.53;;
59786;SDS011;45672;51.612;5.536;2022-07-29T09:06:20;5.35;;;2.40;;
59786;SDS011;45672;51.612;5.536;2022-07-29T09:08:46;6.18;;;2.55;;
59786;SDS011;45672;51.612;5.536;2022-07-29T09:11:12;8.07;;;2.55;;
59786;SDS011;45672;51.612;5.536;2022-07-29T09:13:38;5.20;;;2.55;;
59786;SDS011;45672;51.612;5.536;2022-07-29T09:16:04;12.30;;;2.67;;
59786;SDS011;45672;51.612;5.536;2022-07-29T09:18:33;7.53;;;2.28;;
59786;SDS011;45672;51.612;5.536;2022-07-29T09:21:00;6.97;;;2.53;;
59786;SDS011;45672;51.612;5.536;2022-07-29T09:24:05;10.10;;;2.22;;
59786;SDS011;45672;51.612;5.536;2022-07-29T09:26:36;3.03;;;2.33;;
59786;SDS011;45672;51.612;5.536;2022-07-29T09:29:10;9.88;;;2.53;;
59786;SDS011;45672;51.612;5.536;2022-07-29T09:31:38;5.35;;;2.10;;
59786;SDS011;45672;51.612;5.536;2022-07-29T09:34:05;13.20;;;2.50;;
59786;SDS011;45672;51.612;5.536;2022-07-29T09:36:38;4.38;;;2.20;;
59786;SDS011;45672;51.612;5.536;2022-07-29T09:39:11;8.32;;;2.47;;
59786;SDS011;45672;51.612;5.536;2022-07-29T09:41:44;5.68;;;2.10;;
59786;SDS011;45672;51.612;5.536;2022-07-29T09:44:12;4.82;;;2.28;;
59786;SDS011;45672;51.612;5.536;2022-07-29T09:46:39;8.18;;;2.47;;
59786;SDS011;45672;51.612;5.536;2022-07-29T09:49:07;5.10;;;2.67;;
59786;SDS011;45672;51.612;5.536;2022-07-29T09:51:37;4.47;;;2.45;;
59786;SDS011;45672;51.612;5.536;2022-07-29T09:56:48;6.57;;;2.78;;
59786;SDS011;45672;51.612;5.536;2022-07-29T09:59:14;8.75;;;2.50;;
59786;SDS011;45672;51.612;5.536;2022-07-29T10:01:39;5.35;;;2.72;;
59786;SDS011;45672;51.612;5.536;2022-07-29T10:04:05;5.75;;;2.50;;
59786;SDS011;45672;51.612;5.536;2022-07-29T10:06:30;4.97;;;3.03;;
59786;SDS011;45672;51.612;5.536;2022-07-29T10:09:06;9.32;;;2.63;;
59786;SDS011;45672;51.612;5.536;2022-07-29T10:11:33;7.35;;;2.30;;
59786;SDS011;45672;51.612;5.536;2022-07-29T10:13:58;4.15;;;2.42;;
59786;SDS011;45672;51.612;5.536;2022-07-29T10:16:26;5.13;;;2.60;;
59786;SDS011;45672;51.612;5.536;2022-07-29T10:18:57;9.00;;;2.33;;
59786;SDS011;45672;51.612;5.536;2022-07-29T10:21:23;6.97;;;2.25;;
59786;SDS011;45672;51.612;5.536;2022-07-29T10:23:52;4.70;;;2.33;;
59786;SDS011;45672;51.612;5.536;2022-07-29T10:26:17;5.97;;;1.85;;
59786;SDS011;45672;51.612;5.536;2022-07-29T10:28:44;4.28;;;1.98;;
59786;SDS011;45672;51.612;5.536;2022-07-29T10:31:18;5.40;;;2.00;;
59786;SDS011;45672;51.612;5.536;2022-07-29T10:43:03;5.18;;;2.08;;
59786;SDS011;45672;51.612;5.536;2022-07-29T10:45:40;5.07;;;2.50;;
59786;SDS011;45672;51.612;5.536;2022-07-29T10:48:06;5.68;;;2.50;;
59786;SDS011;45672;51.612;5.536;2022-07-29T10:56:28;9.90;;;3.40;;
59786;SDS011;45672;51.612;5.536;2022-07-29T11:01:45;6.10;;;2.75;;
59786;SDS011;45672;51.612;5.536;2022-07-29T11:04:11;4.50;;;2.40;;
59786;SDS011;45672;51.612;5.536;2022-07-29T11:09:30;7.28;;;3.60;;
59786;SDS011;45672;51.612;5.536;2022-07-29T11:11:56;9.50;;;3.20;;
59786;SDS011;45672;51.612;5.536;2022-07-29T11:17:18;9.18;;;3.00;;
59786;SDS011;45672;51.612;5.536;2022-07-29T11:19:44;5.72;;;2.38;;
59786;SDS011;45672;51.612;5.536;2022-07-29T11:22:09;5.65;;;2.55;;
59786;SDS011;45672;51.612;5.536;2022-07-29T11:24:35;6.10;;;2.75;;
59786;SDS011;45672;51.612;5.536;2022-07-29T11:29:54;6.10;;;2.15;;
59786;SDS011;45672;51.612;5.536;2022-07-29T11:32:22;8.40;;;1.90;;
59786;SDS011;45672;51.612;5.536;2022-07-29T11:35:11;4.18;;;2.28;;
59786;SDS011;45672;51.612;5.536;2022-07-29T11:37:36;4.40;;;2.20;;
59786;SDS011;45672;51.612;5.536;2022-07-29T11:47:35;2.30;;;2.10;;
59786;SDS011;45672;51.612;5.536;2022-07-29T11:50:02;6.45;;;3.00;;
59786;SDS011;45672;51.612;5.536;2022-07-29T11:52:32;6.15;;;3.00;;
59786;SDS011;45672;51.612;5.536;2022-07-29T11:55:02;9.05;;;2.70;;
59786;SDS011;45672;51.612;5.536;2022-07-29T11:57:29;8.10;;;2.70;;
59786;SDS011;45672;51.612;5.536;2022-07-29T11:59:55;9.73;;;2.97;;
59786;SDS011;45672;51.612;5.536;2022-07-29T12:02:22;5.75;;;2.78;;
59786;SDS011;45672;51.612;5.536;2022-07-29T12:04:48;5.18;;;3.30;;
59786;SDS011;45672;51.612;5.536;2022-07-29T12:07:17;3.95;;;2.80;;
59786;SDS011;45672;51.612;5.536;2022-07-29T12:09:50;14.27;;;3.17;;
59786;SDS011;45672;51.612;5.536;2022-07-29T12:12:16;4.15;;;2.70;;
59786;SDS011;45672;51.612;5.536;2022-07-29T12:14:42;4.82;;;3.03;;
59786;SDS011;45672;51.612;5.536;2022-07-29T12:17:24;4.80;;;2.60;;
59786;SDS011;45672;51.612;5.536;2022-07-29T12:19:54;6.40;;;1.80;;
59786;SDS011;45672;51.612;5.536;2022-07-29T12:24:53;5.70;;;1.70;;
59786;SDS011;45672;51.612;5.536;2022-07-29T12:27:19;4.97;;;2.38;;
59786;SDS011;45672;51.612;5.536;2022-07-29T12:29:45;7.70;;;2.53;;
59786;SDS011;45672;51.612;5.536;2022-07-29T12:32:20;3.47;;;2.15;;
59786;SDS011;45672;51.612;5.536;2022-07-29T12:34:45;3.88;;;2.15;;
59786;SDS011;45672;51.612;5.536;2022-07-29T12:37:10;2.83;;;1.90;;
59786;SDS011;45672;51.612;5.536;2022-07-29T12:39:36;3.40;;;1.90;;
59786;SDS011;45672;51.612;5.536;2022-07-29T12:42:10;8.23;;;1.90;;
59786;SDS011;45672;51.612;5.536;2022-07-29T12:44:46;9.07;;;2.25;;
59786;SDS011;45672;51.612;5.536;2022-07-29T12:47:15;2.33;;;1.83;;
59786;SDS011;45672;51.612;5.536;2022-07-29T12:49:43;4.68;;;1.98;;
59786;SDS011;45672;51.612;5.536;2022-07-29T12:52:22;7.30;;;2.53;;
59786;SDS011;45672;51.612;5.536;2022-07-29T12:54:55;5.15;;;2.95;;
59786;SDS011;45672;51.612;5.536;2022-07-29T12:57:21;5.57;;;3.58;;
59786;SDS011;45672;51.612;5.536;2022-07-29T13:02:36;5.85;;;2.90;;
59786;SDS011;45672;51.612;5.536;2022-07-29T13:05:02;7.55;;;2.33;;
59786;SDS011;45672;51.612;5.536;2022-07-29T13:07:30;12.32;;;2.90;;
59786;SDS011;45672;51.612;5.536;2022-07-29T13:12:39;4.30;;;2.22;;
59786;SDS011;45672;51.612;5.536;2022-07-29T13:15:31;5.07;;;2.08;;
59786;SDS011;45672;51.612;5.536;2022-07-29T13:17:57;7.25;;;2.90;;
59786;SDS011;45672;51.612;5.536;2022-07-29T13:20:24;5.22;;;2.38;;
59786;SDS011;45672;51.612;5.536;2022-07-29T13:22:52;3.28;;;2.28;;
59786;SDS011;45672;51.612;5.536;2022-07-29T13:25:28;11.13;;;2.10;;
59786;SDS011;45672;51.612;5.536;2022-07-29T13:27:56;5.47;;;1.90;;
59786;SDS011;45672;51.612;5.536;2022-07-29T13:30:22;3.90;;;1.70;;
59786;SDS011;45672;51.612;5.536;2022-07-29T13:32:48;7.40;;;2.60;;
59786;SDS011;45672;51.612;5.536;2022-07-29T13:35:14;3.90;;;2.13;;
59786;SDS011;45672;51.612;5.536;2022-07-29T13:37:39;5.07;;;2.65;;
59786;SDS011;45672;51.612;5.536;2022-07-29T13:40:06;5.68;;;2.55;;
59786;SDS011;45672;51.612;5.536;2022-07-29T13:42:33;7.95;;;2.65;;
59786;SDS011;45672;51.612;5.536;2022-07-29T13:44:59;4.30;;;2.50;;
59786;SDS011;45672;51.612;5.536;2022-07-29T13:47:25;4.82;;;2.20;;
59786;SDS011;45672;51.612;5.536;2022-07-29T13:49:51;8.63;;;2.40;;
59786;SDS011;45672;51.612;5.536;2022-07-29T13:52:18;7.95;;;1.90;;
59786;SDS011;45672;51.612;5.536;2022-07-29T13:54:44;4.38;;;2.03;;
59786;SDS011;45672;51.612;5.536;2022-07-29T13:57:09;3.33;;;1.90;;
59786;SDS011;45672;51.612;5.536;2022-07-29T13:59:35;2.63;;;1.90;;
59786;SDS011;45672;51.612;5.536;2022-07-29T14:02:01;5.07;;;2.10;;
59786;SDS011;45672;51.612;5.536;2022-07-29T14:04:26;11.32;;;2.00;;
59786;SDS011;45672;51.612;5.536;2022-07-29T14:06:52;4.22;;;1.90;;
59786;SDS011;45672;51.612;5.536;2022-07-29T14:09:17;5.15;;;1.40;;
59786;SDS011;45672;51.612;5.536;2022-07-29T14:11:43;5.03;;;1.70;;
59786;SDS011;45672;51.612;5.536;2022-07-29T14:14:08;4.32;;;1.95;;
59786;SDS011;45672;51.612;5.536;2022-07-29T14:16:35;2.85;;;1.98;;
59786;SDS011;45672;51.612;5.536;2022-07-29T14:19:00;6.38;;;2.35;;
59786;SDS011;45672;51.612;5.536;2022-07-29T14:21:25;8.15;;;2.03;;
59786;SDS011;45672;51.612;5.536;2022-07-29T14:23:51;8.02;;;2.05;;
59786;SDS011;45672;51.612;5.536;2022-07-29T14:26:17;3.42;;;2.35;;
59786;SDS011;45672;51.612;5.536;2022-07-29T14:28:42;2.95;;;1.85;;
59786;SDS011;45672;51.612;5.536;2022-07-29T14:31:11;5.72;;;2.00;;
59786;SDS011;45672;51.612;5.536;2022-07-29T14:33:36;6.32;;;1.80;;
59786;SDS011;45672;51.612;5.536;2022-07-29T14:36:02;4.25;;;2.03;;
59786;SDS011;45672;51.612;5.536;2022-07-29T14:38:27;2.83;;;1.80;;
59786;SDS011;45672;51.612;5.536;2022-07-29T14:40:53;4.85;;;1.67;;
59786;SDS011;45672;51.612;5.536;2022-07-29T14:43:18;5.72;;;1.67;;
59786;SDS011;45672;51.612;5.536;2022-07-29T14:45:43;5.25;;;2.17;;
59786;SDS011;45672;51.612;5.536;2022-07-29T14:48:09;8.02;;;2.17;;
59786;SDS011;45672;51.612;5.536;2022-07-29T14:50:36;4.25;;;1.70;;
59786;SDS011;45672;51.612;5.536;2022-07-29T14:53:02;7.25;;;1.90;;
59786;SDS011;45672;51.612;5.536;2022-07-29T14:55:28;6.10;;;1.85;;
59786;SDS011;45672;51.612;5.536;2022-07-29T14:57:53;6.03;;;1.80;;
59786;SDS011;45672;51.612;5.536;2022-07-29T15:00:19;5.25;;;2.13;;
59786;SDS011;45672;51.612;5.536;2022-07-29T15:02:45;5.07;;;1.70;;
59786;SDS011;45672;51.612;5.536;2022-07-29T15:05:11;6.45;;;2.05;;
59786;SDS011;45672;51.612;5.536;2022-07-29T15:07:36;4.93;;;1.83;;
59786;SDS011;45672;51.612;5.536;2022-07-29T15:10:02;3.28;;;1.60;;
59786;SDS011;45672;51.612;5.536;2022-07-29T15:12:29;4.15;;;1.95;;
59786;SDS011;45672;51.612;5.536;2022-07-29T15:14:55;3.38;;;1.92;;
59786;SDS011;45672;51.612;5.536;2022-07-29T15:17:20;6.82;;;1.83;;
59786;SDS011;45672;51.612;5.536;2022-07-29T15:19:48;4.75;;;2.25;;
59786;SDS011;45672;51.612;5.536;2022-07-29T15:22:14;9.98;;;2.38;;
59786;SDS011;45672;51.612;5.536;2022-07-29T15:24:39;8.30;;;2.03;;
59786;SDS011;45672;51.612;5.536;2022-07-29T15:27:04;3.92;;;1.70;;
59786;SDS011;45672;51.612;5.536;2022-07-29T15:29:30;5.03;;;1.90;;
59786;SDS011;45672;51.612;5.536;2022-07-29T15:31:55;6.10;;;1.92;;
59786;SDS011;45672;51.612;5.536;2022-07-29T15:34:20;4.45;;;1.58;;
59786;SDS011;45672;51.612;5.536;2022-07-29T15:36:48;4.25;;;2.08;;
59786;SDS011;45672;51.612;5.536;2022-07-29T15:39:13;6.82;;;2.08;;
59786;SDS011;45672;51.612;5.536;2022-07-29T15:41:38;10.43;;;2.03;;
59786;SDS011;45672;51.612;5.536;2022-07-29T15:44:04;6.57;;;2.03;;
59786;SDS011;45672;51.612;5.536;2022-07-29T15:46:29;8.75;;;1.95;;
59786;SDS011;45672;51.612;5.536;2022-07-29T15:49:13;8.52;;;1.92;;
59786;SDS011;45672;51.612;5.536;2022-07-29T15:51:38;2.83;;;1.90;;